KAEJ

Central Colorado Regional Airport

Buena Vista, Colorado, USA
METAR KAEJ 201235Z AUTO 27003KT 10SM CLR M03/M07 A3056 RMK AO2 T10311066
Observed Flight Rules
Oct-20 @ 12:35 UTC (16 minutes ago) Visual Flight Rules
Wind Visibility Clouds
270° at 3 knots 10 miles
  • Clear skies
Temperatures Readings
Current -3°C / 27°F
Dewpoint -7°C / 19°F
Humidity 74%
Altimeter 30.56" Hg
Pressure 1035 hPa
Elevation 2422
METAR KAEJ 201235Z AUTO 27003KT 10SM CLR M03/M07 A3056 RMK AO2 T10311066
Observed Flight Rules
Oct-20 @ 12:35 UTC
(16 minutes ago)
VFR
Wind Visibility
270° at 3 knots 10 miles
Clouds
  • Clear skies
Temperature Dewpoint
-3°C / 27°F -7°C / 19°F
Humidity Altimeter Pressure
74% 30.56" Hg 1035 hPa